Time,TemperatureF,DewpointF,PressureIn,WindDirection,WindDirectionDegrees,WindSpeedMPH,WindSpeedGustMPH,Humidity,HourlyPrecipIn,Conditions,Clouds,dailyrainin,SolarRadiationWatts/m^2,SoftwareType,DateUTC
2013-01-08 00:00:00,28.4,23.6,30.16,SSW,202,2.6,4.0,82,0.00,CLR,,0.01,0.0,WeatherDisplay:10.37,2013-01-08 05:00:00,
2013-01-08 00:01:00,28.3,23.5,30.16,SW,230,2.1,3.5,82,0.00,RA,,0.00,0.0,WeatherDisplay:10.37,2013-01-08 05:01:00,
2013-01-08 00:06:00,28.3,23.8,30.16,SSW,199,3.5,4.6,83,0.00,RA,,0.00,0.0,WeatherDisplay:10.37,2013-01-08 05:06:00,
2013-01-08 00:11:00,28.1,23.6,30.16,SW,222,3.8,6.9,83,0.00,CLR,,0.00,0.0,WeatherDisplay:10.37,2013-01-08 05:11:00,
2013-01-08 00:16:00,28.1,23.6,30.16,WSW,237,2.6,5.0,83,0.00,CLR,,0.00,0.0,WeatherDisplay:10.37,2013-01-08 05:16:00,
2013-01-08 00:21:00,27.9,23.4,30.16,WSW,256,1.1,2.3,83,0.00,CLR,,0.00,0.0,WeatherDisplay:10.37,2013-01-08 05:21:00,
2013-01-08 00:26:00,27.8,23.3,30.16,West,259,1.8,3.5,83,0.00,CLR,,0.00,0.0,WeatherDisplay:10.37,2013-01-08 05:26:00,
2013-01-08 00:31:00,27.6,23.1,30.16,NNW,332,0.7,3.5,83,0.00,CLR,,0.00,0.0,WeatherDisplay:10.37,2013-01-08 05:31:00,
2013-01-08 00:36:00,27.5,23.0,30.17,SW,220,3.4,4.0,83,0.00,CLR,,0.00,0.0,WeatherDisplay:10.37,2013-01-08 05:36:00,
2013-01-08 00:41:00,27.5,23.3,30.17,SE,143,2.6,3.5,84,0.00,CLR,,0.00,0.0,WeatherDisplay:10.37,2013-01-08 05:41:00,
2013-01-08 00:46:00,27.4,23.2,30.17,SSW,197,2.6,3.5,84,0.00,CLR,,0.00,0.0,WeatherDisplay:10.37,2013-01-08 05:46:00,
2013-01-08 00:51:00,27.3,23.1,30.17,SW,224,1.0,2.3,84,0.00,CLR,,0.00,0.0,WeatherDisplay:10.37,2013-01-08 05:51:00,
2013-01-08 00:56:00,27.1,22.9,30.17,WSW,240,1.9,3.5,84,0.00,CLR,,0.00,0.0,WeatherDisplay:10.37,2013-01-08 05:56:00,
2013-01-08 01:01:00,27.1,22.9,30.17,SSW,200,3.6,6.9,84,0.00,CLR,,0.00,0.0,WeatherDisplay:10.37,2013-01-08 06:01:00,
2013-01-08 01:06:00,27.0,22.8,30.17,SW,215,2.1,4.6,84,0.00,CLR,,0.00,0.0,WeatherDisplay:10.37,2013-01-08 06:06:00,
2013-01-08 01:11:00,26.9,23.0,30.17,SSE,153,2.0,4.0,85,0.00,CLR,,0.00,0.0,WeatherDisplay:10.37,2013-01-08 06:11:00,
2013-01-08 01:16:00,26.9,23.0,30.17,SSW,209,0.7,3.5,85,0.00,CLR,,0.00,0.0,WeatherDisplay:10.37,2013-01-08 06:16:00,
2013-01-08 01:21:00,26.7,22.5,30.17,South,173,1.5,4.6,84,0.00,CLR,,0.00,0.0,WeatherDisplay:10.37,2013-01-08 06:21:00,
2013-01-08 01:26:00,26.6,22.7,30.17,SSW,205,1.5,3.5,85,0.00,CLR,,0.00,0.0,WeatherDisplay:10.37,2013-01-08 06:26:00,
2013-01-08 01:31:00,26.6,22.7,30.17,SSE,168,2.2,4.6,85,0.00,CLR,,0.00,0.0,WeatherDisplay:10.37,2013-01-08 06:31:00,
2013-01-08 01:36:00,26.6,22.7,30.17,SSE,158,2.4,2.4,85,0.00,CLR,,0.00,0.0,WeatherDisplay:10.37,2013-01-08 06:36:00,
2013-01-08 01:41:00,26.5,22.6,30.17,SW,216,2.1,3.0,85,0.00,CLR,,0.00,0.0,WeatherDisplay:10.37,2013-01-08 06:41:00,
2013-01-08 01:46:00,26.4,22.5,30.17,SW,217,0.7,3.5,85,0.00,CLR,,0.00,0.0,WeatherDisplay:10.37,2013-01-08 06:46:00,
2013-01-08 01:51:00,26.2,22.3,30.17,SSW,211,3.3,3.5,85,0.00,CLR,,0.00,0.0,WeatherDisplay:10.37,2013-01-08 06:51:00,
2013-01-08 01:56:00,26.2,22.6,30.17,South,188,1.0,3.5,86,0.00,CLR,,0.00,0.0,WeatherDisplay:10.37,2013-01-08 06:56:00,
2013-01-08 02:01:00,26.2,22.3,30.17,South,190,1.8,3.5,85,0.00,CLR,,0.00,0.0,WeatherDisplay:10.37,2013-01-08 07:01:00,
2013-01-08 02:06:00,26.1,22.2,30.17,SSW,201,2.2,2.3,85,0.00,CLR,,0.00,0.0,WeatherDisplay:10.37,2013-01-08 07:06:00,
2013-01-08 02:11:00,26.0,22.1,30.17,West,263,2.2,2.3,85,0.00,CLR,,0.00,0.0,WeatherDisplay:10.37,2013-01-08 07:11:00,
2013-01-08 02:16:00,26.0,22.4,30.17,South,179,3.2,3.5,86,0.00,CLR,,0.00,0.0,WeatherDisplay:10.37,2013-01-08 07:16:00,
2013-01-08 02:21:00,26.1,22.5,30.17,South,180,1.5,2.0,86,0.00,CLR,,0.00,0.0,WeatherDisplay:10.37,2013-01-08 07:21:00,
2013-01-08 02:26:00,26.0,22.1,30.17,SSW,209,2.2,2.3,85,0.00,CLR,,0.00,0.0,WeatherDisplay:10.37,2013-01-08 07:26:00,
2013-01-08 02:31:00,25.8,21.9,30.17,SSE,163,1.4,2.3,85,0.00,CLR,,0.00,0.0,WeatherDisplay:10.37,2013-01-08 07:31:00,
2013-01-08 02:36:00,25.6,22.0,30.17,South,185,2.1,3.0,86,0.00,CLR,,0.00,0.0,WeatherDisplay:10.37,2013-01-08 07:36:00,
2013-01-08 02:41:00,25.5,21.9,30.17,SSW,195,0.9,3.5,86,0.00,CLR,,0.00,0.0,WeatherDisplay:10.37,2013-01-08 07:41:00,
2013-01-08 02:46:00,25.5,21.9,30.17,South,169,2.3,3.5,86,0.00,CLR,,0.00,0.0,WeatherDisplay:10.37,2013-01-08 07:46:00,
2013-01-08 02:51:00,25.6,22.3,30.17,South,183,2.1,3.5,87,0.00,CLR,,0.00,0.0,WeatherDisplay:10.37,2013-01-08 07:51:00,
2013-01-08 02:56:00,25.6,22.0,30.17,South,175,0.9,2.0,86,0.00,CLR,,0.00,0.0,WeatherDisplay:10.37,2013-01-08 07:56:00,
2013-01-08 03:01:00,25.5,21.9,30.18,SSE,157,1.0,4.0,86,0.00,CLR,,0.00,0.0,WeatherDisplay:10.37,2013-01-08 08:01:00,
2013-01-08 03:07:00,25.6,22.3,30.17,SW,229,1.6,3.5,87,0.00,CLR,,0.00,0.0,WeatherDisplay:10.37,2013-01-08 08:07:00,
2013-01-08 03:12:00,25.7,22.1,30.17,South,188,3.1,3.5,86,0.00,CLR,,0.00,0.0,WeatherDisplay:10.37,2013-01-08 08:12:00,
2013-01-08 03:17:00,25.8,22.2,30.17,SSE,161,1.8,4.6,86,0.00,CLR,,0.00,0.0,WeatherDisplay:10.37,2013-01-08 08:17:00,
2013-01-08 03:22:00,25.8,22.2,30.17,SW,236,1.1,3.5,86,0.00,CLR,,0.00,0.0,WeatherDisplay:10.37,2013-01-08 08:22:00,
2013-01-08 03:27:00,25.8,22.2,30.17,SW,215,3.0,8.0,86,0.00,CLR,,0.00,0.0,WeatherDisplay:10.37,2013-01-08 08:27:00,
2013-01-08 03:32:00,25.8,22.2,30.17,SSW,209,2.4,2.4,86,0.00,CLR,,0.00,0.0,WeatherDisplay:10.37,2013-01-08 08:32:00,
2013-01-08 03:37:00,25.8,22.2,30.17,SW,226,2.4,4.0,86,0.00,CLR,,0.00,0.0,WeatherDisplay:10.37,2013-01-08 08:37:00,
2013-01-08 03:42:00,25.7,22.1,30.18,SW,214,1.1,3.5,86,0.00,CLR,,0.00,0.0,WeatherDisplay:10.37,2013-01-08 08:42:00,
2013-01-08 03:47:00,25.6,22.0,30.17,South,171,1.8,2.3,86,0.00,CLR,,0.00,0.0,WeatherDisplay:10.37,2013-01-08 08:47:00,
2013-01-08 03:52:00,25.5,21.9,30.17,South,171,1.1,2.3,86,0.00,CLR,,0.00,0.0,WeatherDisplay:10.37,2013-01-08 08:52:00,
2013-01-08 03:57:00,25.4,21.8,30.18,SSW,194,2.2,2.2,86,0.00,CLR,,0.00,0.0,WeatherDisplay:10.37,2013-01-08 08:57:00,
2013-01-08 04:02:00,25.5,22.2,30.18,SW,229,2.4,4.6,87,0.00,CLR,,0.00,0.0,WeatherDisplay:10.37,2013-01-08 09:02:00,
2013-01-08 04:07:00,25.4,21.8,30.18,SSW,193,0.5,2.3,86,0.00,CLR,,0.00,0.0,WeatherDisplay:10.37,2013-01-08 09:07:00,
2013-01-08 04:12:00,25.3,21.7,30.18,SSW,209,0.7,2.3,86,0.00,CLR,,0.00,0.0,WeatherDisplay:10.37,2013-01-08 09:12:00,
2013-01-08 04:17:00,25.0,21.4,30.18,WSW,237,0.9,2.3,86,0.00,CLR,,0.00,0.0,WeatherDisplay:10.37,2013-01-08 09:17:00,
2013-01-08 04:22:00,25.0,21.7,30.17,South,190,2.4,3.5,87,0.00,CLR,,0.00,0.0,WeatherDisplay:10.37,2013-01-08 09:22:00,
2013-01-08 04:27:00,25.0,21.7,30.17,SW,216,0.6,3.5,87,0.00,CLR,,0.00,0.0,WeatherDisplay:10.37,2013-01-08 09:27:00,
2013-01-08 04:32:00,24.9,21.6,30.18,SW,234,0.0,2.3,87,0.00,CLR,,0.00,0.0,WeatherDisplay:10.37,2013-01-08 09:32:00,
2013-01-08 04:37:00,24.8,21.5,30.18,SW,222,2.5,3.5,87,0.00,CLR,,0.00,0.0,WeatherDisplay:10.37,2013-01-08 09:37:00,
2013-01-08 04:42:00,24.8,21.5,30.18,West,273,2.2,3.5,87,0.00,CLR,,0.00,0.0,WeatherDisplay:10.37,2013-01-08 09:42:00,
2013-01-08 04:47:00,24.9,21.6,30.18,SW,220,1.4,3.5,87,0.00,CLR,,0.00,0.0,WeatherDisplay:10.37,2013-01-08 09:47:00,
2013-01-08 04:52:00,24.9,21.6,30.18,South,184,2.0,3.5,87,0.00,CLR,,0.00,0.0,WeatherDisplay:10.37,2013-01-08 09:52:00,
2013-01-08 04:57:00,24.8,21.5,30.18,SW,232,1.1,2.3,87,0.00,CLR,,0.00,0.0,WeatherDisplay:10.37,2013-01-08 09:57:00,
2013-01-08 05:02:00,24.6,21.3,30.18,SSW,207,1.1,2.3,87,0.00,CLR,,0.00,0.0,WeatherDisplay:10.37,2013-01-08 10:02:00,
2013-01-08 05:07:00,24.5,21.2,30.17,SSE,165,0.4,2.3,87,0.00,CLR,,0.00,0.0,WeatherDisplay:10.37,2013-01-08 10:07:00,
2013-01-08 05:12:00,24.3,21.0,30.17,SSW,205,1.7,3.5,87,0.00,CLR,,0.00,0.0,WeatherDisplay:10.37,2013-01-08 10:12:00,
2013-01-08 05:17:00,24.3,21.3,30.17,SW,227,0.4,2.3,88,0.00,CLR,,0.00,0.0,WeatherDisplay:10.37,2013-01-08 10:17:00,
2013-01-08 05:22:00,24.3,21.3,30.18,South,180,1.8,3.5,88,0.00,CLR,,0.00,0.0,WeatherDisplay:10.37,2013-01-08 10:22:00,
2013-01-08 05:27:00,24.2,21.2,30.18,South,184,2.4,3.5,88,0.00,CLR,,0.00,0.0,WeatherDisplay:10.37,2013-01-08 10:27:00,
2013-01-08 05:32:00,24.2,21.2,30.18,SW,222,1.4,2.3,88,0.00,CLR,,0.00,0.0,WeatherDisplay:10.37,2013-01-08 10:32:00,
2013-01-08 05:37:00,24.2,21.2,30.18,SW,223,0.7,2.3,88,0.00,CLR,,0.00,0.0,WeatherDisplay:10.37,2013-01-08 10:37:00,
2013-01-08 05:42:00,24.0,21.0,30.17,SW,217,1.7,3.5,88,0.00,CLR,,0.00,0.0,WeatherDisplay:10.37,2013-01-08 10:42:00,
2013-01-08 05:47:00,23.9,20.9,30.17,South,188,1.9,3.5,88,0.00,CLR,,0.00,0.0,WeatherDisplay:10.37,2013-01-08 10:47:00,
2013-01-08 05:52:00,23.7,20.7,30.18,South,186,0.6,2.3,88,0.00,CLR,,0.00,0.0,WeatherDisplay:10.37,2013-01-08 10:52:00,
2013-01-08 05:57:00,23.5,20.5,30.18,South,182,0.9,2.3,88,0.00,CLR,,0.00,0.0,WeatherDisplay:10.37,2013-01-08 10:57:00,
2013-01-08 06:02:00,23.4,20.4,30.18,South,182,1.1,2.3,88,0.00,CLR,,0.00,0.0,WeatherDisplay:10.37,2013-01-08 11:02:00,
2013-01-08 06:07:00,23.2,20.2,30.18,South,184,0.1,2.3,88,0.00,CLR,,0.00,0.0,WeatherDisplay:10.37,2013-01-08 11:07:00,
2013-01-08 06:12:00,22.9,19.9,30.18,South,184,0.1,1.1,88,0.00,CLR,,0.00,0.0,WeatherDisplay:10.37,2013-01-08 11:12:00,
2013-01-08 06:17:00,22.7,19.9,30.18,South,187,0.9,1.1,89,0.00,CLR,,0.00,0.0,WeatherDisplay:10.37,2013-01-08 11:17:00,
2013-01-08 06:22:00,22.5,19.7,30.18,South,191,1.5,3.5,89,0.00,CLR,,0.00,0.0,WeatherDisplay:10.37,2013-01-08 11:22:00,
2013-01-08 06:27:00,22.2,19.5,30.18,South,191,0.5,1.1,89,0.00,CLR,,0.00,0.0,WeatherDisplay:10.37,2013-01-08 11:27:00,
2013-01-08 06:32:00,22.0,19.3,30.18,South,182,1.5,2.3,89,0.00,CLR,,0.00,0.0,WeatherDisplay:10.37,2013-01-08 11:32:00,
2013-01-08 06:37:00,21.8,19.3,30.18,South,182,0.4,1.1,90,0.00,CLR,,0.00,0.0,WeatherDisplay:10.37,2013-01-08 11:37:00,
2013-01-08 06:42:00,21.7,19.5,30.18,South,181,1.0,2.3,91,0.00,CLR,,0.00,0.0,WeatherDisplay:10.37,2013-01-08 11:42:00,
2013-01-08 06:47:00,21.7,19.5,30.18,South,169,0.7,2.3,91,0.00,CLR,,0.00,0.0,WeatherDisplay:10.37,2013-01-08 11:47:00,
2013-01-08 06:52:00,21.8,19.6,30.19,South,187,1.2,2.3,91,0.00,CLR,,0.00,0.0,WeatherDisplay:10.37,2013-01-08 11:52:00,
2013-01-08 06:57:00,21.7,19.5,30.19,South,190,1.0,3.0,91,0.00,CLR,,0.00,0.0,WeatherDisplay:10.37,2013-01-08 11:57:00,
2013-01-08 07:02:00,21.8,19.6,30.19,South,182,2.0,3.5,91,0.00,CLR,,0.00,0.0,WeatherDisplay:10.37,2013-01-08 12:02:00,
2013-01-08 07:07:00,22.0,19.8,30.19,South,190,0.5,2.0,91,0.00,CLR,,0.00,0.0,WeatherDisplay:10.37,2013-01-08 12:07:00,
2013-01-08 07:12:00,22.0,19.8,30.19,SSE,157,0.7,2.3,91,0.00,CLR,,0.00,0.0,WeatherDisplay:10.37,2013-01-08 12:12:00,
2013-01-08 07:17:00,22.0,19.8,30.19,South,182,1.6,3.5,91,0.00,CLR,,0.00,0.0,WeatherDisplay:10.37,2013-01-08 12:17:00,
2013-01-08 07:22:00,22.0,19.8,30.20,SSW,200,0.5,1.1,91,0.00,CLR,,0.00,0.0,WeatherDisplay:10.37,2013-01-08 12:22:00,
2013-01-08 07:27:00,22.0,19.5,30.20,SSW,200,1.1,1.1,90,0.00,CLR,,0.00,0.0,WeatherDisplay:10.37,2013-01-08 12:27:00,
2013-01-08 07:32:00,22.0,19.8,30.20,SSW,202,0.5,2.3,91,0.00,CLR,,0.00,0.0,WeatherDisplay:10.37,2013-01-08 12:32:00,
2013-01-08 07:37:00,22.0,19.8,30.20,South,183,0.7,2.3,91,0.00,CLR,,0.00,0.0,WeatherDisplay:10.37,2013-01-08 12:37:00,
2013-01-08 07:42:00,22.1,19.9,30.21,South,173,2.4,3.5,91,0.00,CLR,,0.00,0.0,WeatherDisplay:10.37,2013-01-08 12:42:00,
2013-01-08 07:47:00,22.2,20.0,30.21,SSW,193,2.0,3.5,91,0.00,CLR,,0.00,0.0,WeatherDisplay:10.37,2013-01-08 12:47:00,
2013-01-08 07:52:00,22.3,20.1,30.21,SSW,197,0.3,1.1,91,0.00,CLR,,0.00,0.0,WeatherDisplay:10.37,2013-01-08 12:52:00,
2013-01-08 07:57:00,22.4,20.2,30.21,SSW,203,1.5,3.5,91,0.00,CLR,,0.00,0.0,WeatherDisplay:10.37,2013-01-08 12:57:00,
2013-01-08 08:02:00,22.4,20.2,30.21,SSW,193,0.8,3.5,91,0.00,CLR,,0.00,0.0,WeatherDisplay:10.37,2013-01-08 13:02:00,
2013-01-08 08:07:00,22.4,19.9,30.22,South,178,1.2,2.3,90,0.00,CLR,,0.00,5.0,WeatherDisplay:10.37,2013-01-08 13:07:00,
2013-01-08 08:12:00,22.4,20.2,30.22,WSW,248,1.6,3.5,91,0.00,CLR,,0.00,11.0,WeatherDisplay:10.37,2013-01-08 13:12:00,
2013-01-08 08:17:00,22.5,20.3,30.22,SW,219,1.0,2.3,91,0.00,CLR,,0.00,16.0,WeatherDisplay:10.37,2013-01-08 13:17:00,
2013-01-08 08:22:00,22.6,20.1,30.22,SW,225,1.7,2.3,90,0.00,CLR,,0.00,23.0,WeatherDisplay:10.37,2013-01-08 13:22:00,
2013-01-08 08:27:00,22.7,20.2,30.23,SW,222,1.9,3.5,90,0.00,CLR,,0.00,39.0,WeatherDisplay:10.37,2013-01-08 13:27:00,
2013-01-08 08:32:00,22.9,20.4,30.23,South,185,1.0,3.5,90,0.00,CLR,,0.00,39.0,WeatherDisplay:10.37,2013-01-08 13:32:00,
2013-01-08 08:37:00,23.0,20.5,30.23,SSW,201,1.6,3.5,90,0.00,CLR,,0.00,46.0,WeatherDisplay:10.37,2013-01-08 13:37:00,
2013-01-08 08:42:00,23.2,20.7,30.23,South,173,0.7,2.3,90,0.00,CLR,,0.00,53.0,WeatherDisplay:10.37,2013-01-08 13:42:00,
2013-01-08 08:47:00,23.4,20.9,30.23,South,171,2.5,3.5,90,0.00,CLR,,0.00,62.0,WeatherDisplay:10.37,2013-01-08 13:47:00,
2013-01-08 08:52:00,23.7,20.9,30.23,South,175,1.4,2.3,89,0.00,CLR,,0.00,65.0,WeatherDisplay:10.37,2013-01-08 13:52:00,
2013-01-08 08:57:00,23.9,21.1,30.23,SW,218,1.6,2.3,89,0.00,CLR,,0.00,74.0,WeatherDisplay:10.37,2013-01-08 13:57:00,
2013-01-08 09:02:00,24.3,21.5,30.23,West,279,1.7,3.5,89,0.00,CLR,,0.00,83.0,WeatherDisplay:10.37,2013-01-08 14:02:00,
2013-01-08 09:07:00,24.6,21.6,30.23,SSE,168,1.4,3.5,88,0.00,CLR,,0.00,84.0,WeatherDisplay:10.37,2013-01-08 14:07:00,
2013-01-08 09:12:00,24.9,21.6,30.23,SSW,211,1.8,3.5,87,0.00,CLR,,0.00,93.0,WeatherDisplay:10.37,2013-01-08 14:12:00,
2013-01-08 09:17:00,25.1,21.8,30.24,SSW,194,0.9,2.3,87,0.00,CLR,,0.00,100.0,WeatherDisplay:10.37,2013-01-08 14:17:00,
2013-01-08 09:22:00,25.3,22.0,30.24,SSW,209,2.0,4.6,87,0.00,CLR,,0.00,105.0,WeatherDisplay:10.37,2013-01-08 14:22:00,
2013-01-08 09:27:00,25.6,22.3,30.24,SSE,165,1.1,2.3,87,0.00,CLR,,0.00,114.0,WeatherDisplay:10.37,2013-01-08 14:27:00,
2013-01-08 09:32:00,25.8,22.2,30.24,WSW,249,2.7,5.0,86,0.00,CLR,,0.00,120.0,WeatherDisplay:10.37,2013-01-08 14:32:00,
2013-01-08 09:37:00,26.0,22.1,30.23,SE,146,2.4,4.6,85,0.00,CLR,,0.00,127.0,WeatherDisplay:10.37,2013-01-08 14:37:00,
2013-01-08 09:42:00,26.2,22.3,30.24,SSE,159,1.6,3.5,85,0.00,CLR,,0.00,137.0,WeatherDisplay:10.37,2013-01-08 14:42:00,
2013-01-08 09:47:00,26.4,22.5,30.24,SW,232,1.8,4.6,85,0.00,CLR,,0.00,135.0,WeatherDisplay:10.37,2013-01-08 14:47:00,
2013-01-08 09:52:00,26.6,22.4,30.24,SSE,167,1.9,2.3,84,0.00,CLR,,0.00,144.0,WeatherDisplay:10.37,2013-01-08 14:52:00,
2013-01-08 09:57:00,26.8,22.6,30.24,WSW,240,1.1,3.5,84,0.00,CLR,,0.00,160.0,WeatherDisplay:10.37,2013-01-08 14:57:00,
2013-01-08 10:02:00,27.1,22.9,30.24,South,184,2.7,3.5,84,0.00,CLR,,0.00,171.0,WeatherDisplay:10.37,2013-01-08 15:02:00,
2013-01-08 10:07:00,27.4,22.9,30.24,South,191,1.6,3.5,83,0.00,CLR,,0.00,181.0,WeatherDisplay:10.37,2013-01-08 15:07:00,
2013-01-08 10:12:00,27.7,23.2,30.25,SW,215,2.8,4.6,83,0.00,CLR,,0.00,179.0,WeatherDisplay:10.37,2013-01-08 15:12:00,
2013-01-08 10:17:00,28.0,23.2,30.25,SW,225,2.7,3.5,82,0.00,CLR,,0.00,195.0,WeatherDisplay:10.37,2013-01-08 15:17:00,
2013-01-08 10:22:00,28.3,23.5,30.25,WNW,292,3.3,3.5,82,0.00,CLR,,0.00,269.0,WeatherDisplay:10.37,2013-01-08 15:22:00,
2013-01-08 10:27:00,28.9,23.8,30.25,West,259,1.7,3.5,81,0.00,CLR,,0.00,272.0,WeatherDisplay:10.37,2013-01-08 15:27:00,
2013-01-08 10:32:00,29.4,24.3,30.25,South,185,1.9,3.5,81,0.00,CLR,,0.00,232.0,WeatherDisplay:10.37,2013-01-08 15:32:00,
2013-01-08 10:37:00,29.6,23.9,30.25,SW,225,3.8,5.8,79,0.00,CLR,,0.00,188.0,WeatherDisplay:10.37,2013-01-08 15:37:00,
2013-01-08 10:42:00,29.4,24.0,30.24,SSW,192,1.5,4.6,80,0.00,CLR,,0.00,176.0,WeatherDisplay:10.37,2013-01-08 15:42:00,
2013-01-08 10:47:00,29.5,24.1,30.25,WNW,288,0.9,3.0,80,0.00,CLR,,0.00,155.0,WeatherDisplay:10.37,2013-01-08 15:47:00,
2013-01-08 10:52:00,29.7,24.3,30.25,WSW,241,1.5,3.0,80,0.00,CLR,,0.00,158.0,WeatherDisplay:10.37,2013-01-08 15:52:00,
2013-01-08 10:57:00,29.9,24.2,30.25,WSW,246,2.0,3.5,79,0.00,CLR,,0.00,165.0,WeatherDisplay:10.37,2013-01-08 15:57:00,
2013-01-08 11:02:00,30.1,24.4,30.25,SW,229,1.4,3.5,79,0.00,CLR,,0.00,167.0,WeatherDisplay:10.37,2013-01-08 16:02:00,
2013-01-08 11:07:00,30.3,24.6,30.26,West,275,2.0,3.5,79,0.00,CLR,,0.00,178.0,WeatherDisplay:10.37,2013-01-08 16:07:00,
2013-01-08 11:12:00,30.5,24.5,30.25,SW,236,1.8,3.5,78,0.00,CLR,,0.00,183.0,WeatherDisplay:10.37,2013-01-08 16:12:00,
2013-01-08 11:17:00,30.6,24.6,30.25,SW,232,2.5,3.0,78,0.00,CLR,,0.00,202.0,WeatherDisplay:10.37,2013-01-08 16:17:00,
2013-01-08 11:22:00,30.8,24.7,30.25,South,180,1.6,3.5,78,0.00,CLR,,0.00,221.0,WeatherDisplay:10.37,2013-01-08 16:22:00,
2013-01-08 11:27:00,31.1,24.7,30.25,SW,218,2.2,3.5,77,0.00,CLR,,0.00,225.0,WeatherDisplay:10.37,2013-01-08 16:27:00,
2013-01-08 11:32:00,31.4,25.0,30.25,SW,236,1.1,3.5,77,0.00,CLR,,0.00,237.0,WeatherDisplay:10.37,2013-01-08 16:32:00,
2013-01-08 11:37:00,31.4,24.7,30.25,SSE,155,3.7,5.0,76,0.00,CLR,,0.00,237.0,WeatherDisplay:10.37,2013-01-08 16:37:00,
2013-01-08 11:42:00,31.4,25.0,30.25,South,170,3.4,6.9,77,0.00,CLR,,0.00,241.0,WeatherDisplay:10.37,2013-01-08 16:42:00,
2013-01-08 11:47:00,31.5,25.1,30.25,SSW,193,1.8,3.5,77,0.00,CLR,,0.00,244.0,WeatherDisplay:10.37,2013-01-08 16:47:00,
2013-01-08 11:52:00,31.9,25.5,30.25,South,186,2.9,3.5,77,0.00,CLR,,0.00,227.0,WeatherDisplay:10.37,2013-01-08 16:52:00,
2013-01-08 11:57:00,32.0,25.3,30.25,South,170,1.7,3.5,76,0.00,CLR,,0.00,218.0,WeatherDisplay:10.37,2013-01-08 16:57:00,
2013-01-08 12:02:00,32.3,25.6,30.24,SW,214,1.2,5.8,76,0.00,CLR,,0.00,211.0,WeatherDisplay:10.37,2013-01-08 17:02:00,
2013-01-08 12:07:00,32.4,25.7,30.24,South,187,3.6,6.9,76,0.00,CLR,,0.00,223.0,WeatherDisplay:10.37,2013-01-08 17:07:00,
2013-01-08 12:12:00,32.5,25.8,30.24,South,190,3.2,4.6,76,0.00,CLR,,0.00,237.0,WeatherDisplay:10.37,2013-01-08 17:12:00,
2013-01-08 12:17:00,32.8,26.1,30.24,South,182,2.0,3.5,76,0.00,CLR,,0.00,234.0,WeatherDisplay:10.37,2013-01-08 17:17:00,
2013-01-08 12:22:00,33.0,25.9,30.24,SSE,161,3.0,5.8,75,0.00,CLR,,0.00,236.0,WeatherDisplay:10.37,2013-01-08 17:22:00,
2013-01-08 12:27:00,33.2,25.8,30.23,SSW,209,2.9,6.9,74,0.00,CLR,,0.00,246.0,WeatherDisplay:10.37,2013-01-08 17:27:00,
2013-01-08 12:32:00,33.3,26.2,30.23,SSW,203,2.7,4.0,75,0.00,CLR,,0.00,260.0,WeatherDisplay:10.37,2013-01-08 17:32:00,
2013-01-08 12:37:00,33.5,26.1,30.23,SSE,150,3.1,3.5,74,0.00,CLR,,0.00,274.0,WeatherDisplay:10.37,2013-01-08 17:37:00,
2013-01-08 12:42:00,33.6,26.2,30.22,SSW,210,3.0,3.5,74,0.00,CLR,,0.00,285.0,WeatherDisplay:10.37,2013-01-08 17:42:00,
2013-01-08 12:47:00,34.1,26.7,30.22,South,178,2.7,3.5,74,0.00,CLR,,0.00,311.0,WeatherDisplay:10.37,2013-01-08 17:47:00,
2013-01-08 12:52:00,34.4,26.6,30.22,South,170,0.8,3.5,73,0.00,CLR,,0.00,297.0,WeatherDisplay:10.37,2013-01-08 17:52:00,
2013-01-08 12:58:00,34.7,26.6,30.22,SSW,211,3.0,4.6,72,0.00,CLR,,0.00,309.0,WeatherDisplay:10.37,2013-01-08 17:58:00,
2013-01-08 13:03:00,34.9,26.8,30.21,South,188,2.8,3.5,72,0.00,CLR,,0.00,343.0,WeatherDisplay:10.37,2013-01-08 18:03:00,
2013-01-08 13:08:00,35.2,27.1,30.21,SE,144,1.6,3.5,72,0.00,CLR,,0.00,346.0,WeatherDisplay:10.37,2013-01-08 18:08:00,
2013-01-08 13:13:00,35.5,27.4,30.21,South,181,3.3,4.0,72,0.00,CLR,,0.00,369.0,WeatherDisplay:10.37,2013-01-08 18:13:00,
2013-01-08 13:18:00,35.8,27.3,30.21,SW,225,2.7,3.5,71,0.00,CLR,,0.00,359.0,WeatherDisplay:10.37,2013-01-08 18:18:00,
2013-01-08 13:23:00,36.1,27.3,30.21,SW,223,4.0,4.6,70,0.00,CLR,,0.00,381.0,WeatherDisplay:10.37,2013-01-08 18:23:00,
2013-01-08 13:28:00,36.3,27.4,30.21,SW,221,1.4,3.5,70,0.00,CLR,,0.00,301.0,WeatherDisplay:10.37,2013-01-08 18:28:00,
2013-01-08 13:33:00,36.6,27.7,30.21,South,178,4.2,4.6,70,0.00,CLR,,0.00,285.0,WeatherDisplay:10.37,2013-01-08 18:33:00,
2013-01-08 13:38:00,36.6,27.4,30.21,SSE,154,2.8,3.5,69,0.00,CLR,,0.00,262.0,WeatherDisplay:10.37,2013-01-08 18:38:00,
2013-01-08 13:43:00,36.6,27.4,30.21,SW,217,1.6,3.5,69,0.00,CLR,,0.00,237.0,WeatherDisplay:10.37,2013-01-08 18:43:00,
2013-01-08 13:48:00,36.6,27.4,30.21,South,175,1.8,3.5,69,0.00,CLR,,0.00,239.0,WeatherDisplay:10.37,2013-01-08 18:48:00,
2013-01-08 13:53:00,36.7,27.1,30.21,South,169,3.2,3.5,68,0.00,CLR,,0.00,230.0,WeatherDisplay:10.37,2013-01-08 18:53:00,
2013-01-08 13:58:00,36.7,27.5,30.21,SE,146,1.1,3.5,69,0.01,RA,,0.01,220.0,WeatherDisplay:10.37,2013-01-08 18:58:00,
2013-01-08 14:03:00,36.7,27.5,30.21,South,186,1.5,3.5,69,0.01,RA,,0.01,211.0,WeatherDisplay:10.37,2013-01-08 19:03:00,
2013-01-08 14:08:00,36.8,27.6,30.21,South,175,2.5,3.5,69,0.01,CLR,,0.01,213.0,WeatherDisplay:10.37,2013-01-08 19:08:00,
2013-01-08 14:13:00,36.8,27.6,30.21,South,173,2.1,3.5,69,0.01,CLR,,0.01,216.0,WeatherDisplay:10.37,2013-01-08 19:13:00,
2013-01-08 14:18:00,36.9,27.7,30.21,SE,143,1.6,2.3,69,0.01,CLR,,0.01,223.0,WeatherDisplay:10.37,2013-01-08 19:18:00,
2013-01-08 14:23:00,37.0,27.8,30.22,South,174,1.8,3.0,69,0.01,CLR,,0.01,220.0,WeatherDisplay:10.37,2013-01-08 19:23:00,
2013-01-08 14:28:00,36.9,27.3,30.22,SSE,155,1.9,3.5,68,0.01,CLR,,0.01,223.0,WeatherDisplay:10.37,2013-01-08 19:28:00,
2013-01-08 14:33:00,36.9,27.3,30.22,SE,136,2.7,3.5,68,0.01,CLR,,0.01,239.0,WeatherDisplay:10.37,2013-01-08 19:33:00,
2013-01-08 14:38:00,37.0,27.4,30.22,SSE,152,2.2,3.5,68,0.01,CLR,,0.01,246.0,WeatherDisplay:10.37,2013-01-08 19:38:00,
2013-01-08 14:43:00,37.1,27.5,30.22,SSE,164,3.0,4.6,68,0.01,CLR,,0.01,243.0,WeatherDisplay:10.37,2013-01-08 19:43:00,
2013-01-08 14:48:00,37.0,27.4,30.22,SSE,157,1.7,3.5,68,0.01,CLR,,0.01,220.0,WeatherDisplay:10.37,2013-01-08 19:48:00,
2013-01-08 14:53:00,37.1,27.5,30.22,SSW,194,2.2,3.5,68,0.01,CLR,,0.01,207.0,WeatherDisplay:10.37,2013-01-08 19:53:00,
2013-01-08 14:58:00,37.2,27.6,30.22,SW,217,3.1,3.5,68,0.00,CLR,,0.01,186.0,WeatherDisplay:10.37,2013-01-08 19:58:00,
2013-01-08 15:03:00,37.0,27.4,30.22,SW,228,0.4,1.1,68,0.00,CLR,,0.01,160.0,WeatherDisplay:10.37,2013-01-08 20:03:00,
2013-01-08 15:08:00,37.0,27.4,30.22,WSW,242,2.3,3.5,68,0.00,CLR,,0.01,148.0,WeatherDisplay:10.37,2013-01-08 20:08:00,
2013-01-08 15:13:00,36.8,27.6,30.22,South,180,1.9,3.5,69,0.00,CLR,,0.01,139.0,WeatherDisplay:10.37,2013-01-08 20:13:00,
2013-01-08 15:18:00,36.8,27.6,30.22,WSW,250,2.2,3.5,69,0.00,CLR,,0.01,142.0,WeatherDisplay:10.37,2013-01-08 20:18:00,
2013-01-08 15:23:00,36.6,27.4,30.22,SW,215,1.8,3.5,69,0.00,CLR,,0.01,139.0,WeatherDisplay:10.37,2013-01-08 20:23:00,
2013-01-08 15:28:00,36.6,27.7,30.22,South,182,2.3,3.5,70,0.00,CLR,,0.01,144.0,WeatherDisplay:10.37,2013-01-08 20:28:00,
2013-01-08 15:33:00,36.7,27.8,30.22,SSE,165,1.8,3.5,70,0.00,CLR,,0.01,153.0,WeatherDisplay:10.37,2013-01-08 20:33:00,
2013-01-08 15:38:00,36.7,27.5,30.22,South,188,1.8,3.5,69,0.00,CLR,,0.01,135.0,WeatherDisplay:10.37,2013-01-08 20:38:00,
2013-01-08 15:43:00,36.6,27.7,30.22,South,175,1.3,3.5,70,0.00,CLR,,0.01,116.0,WeatherDisplay:10.37,2013-01-08 20:43:00,
2013-01-08 15:48:00,36.6,27.7,30.22,SSW,192,1.0,2.3,70,0.00,CLR,,0.01,109.0,WeatherDisplay:10.37,2013-01-08 20:48:00,
2013-01-08 15:53:00,36.5,27.3,30.23,South,178,3.0,4.6,69,0.00,CLR,,0.01,102.0,WeatherDisplay:10.37,2013-01-08 20:53:00,
2013-01-08 15:58:00,36.4,27.5,30.23,South,169,2.0,3.5,70,0.00,CLR,,0.01,100.0,WeatherDisplay:10.37,2013-01-08 20:58:00,
2013-01-08 16:03:00,36.4,27.5,30.23,South,179,1.9,3.5,70,0.00,CLR,,0.01,91.0,WeatherDisplay:10.37,2013-01-08 21:03:00,
2013-01-08 16:08:00,36.3,27.4,30.23,SSE,167,3.4,5.0,70,0.00,CLR,,0.01,86.0,WeatherDisplay:10.37,2013-01-08 21:08:00,
2013-01-08 16:13:00,36.2,27.4,30.22,SSW,198,1.2,2.3,70,0.00,CLR,,0.01,81.0,WeatherDisplay:10.37,2013-01-08 21:13:00,
2013-01-08 16:18:00,36.2,27.4,30.23,SSE,164,1.3,2.3,70,0.00,CLR,,0.01,76.0,WeatherDisplay:10.37,2013-01-08 21:18:00,
2013-01-08 16:23:00,36.1,27.6,30.23,South,173,1.9,3.5,71,0.00,CLR,,0.01,60.0,WeatherDisplay:10.37,2013-01-08 21:23:00,
2013-01-08 16:28:00,36.0,27.5,30.22,South,175,1.4,3.5,71,0.00,CLR,,0.01,54.0,WeatherDisplay:10.37,2013-01-08 21:28:00,
2013-01-08 16:33:00,36.0,27.5,30.22,SSE,165,1.0,2.3,71,0.00,CLR,,0.01,56.0,WeatherDisplay:10.37,2013-01-08 21:33:00,
2013-01-08 16:38:00,35.9,27.4,30.22,South,175,1.7,3.5,71,0.00,CLR,,0.01,49.0,WeatherDisplay:10.37,2013-01-08 21:38:00,
2013-01-08 16:43:00,35.7,27.6,30.22,South,173,0.9,2.3,72,0.00,CLR,,0.01,40.0,WeatherDisplay:10.37,2013-01-08 21:43:00,
2013-01-08 16:48:00,35.5,27.4,30.22,South,171,1.1,2.3,72,0.00,CLR,,0.01,30.0,WeatherDisplay:10.37,2013-01-08 21:48:00,
2013-01-08 16:53:00,35.3,27.5,30.22,SSE,166,0.5,1.1,73,0.00,CLR,,0.01,25.0,WeatherDisplay:10.37,2013-01-08 21:53:00,
2013-01-08 16:58:00,35.1,27.3,30.21,SSE,167,0.8,2.3,73,0.00,CLR,,0.01,23.0,WeatherDisplay:10.37,2013-01-08 21:58:00,
2013-01-08 17:03:00,34.9,27.1,30.22,SSE,167,1.4,2.3,73,0.00,CLR,,0.01,21.0,WeatherDisplay:10.37,2013-01-08 22:03:00,
2013-01-08 17:08:00,34.7,27.3,30.22,SSE,167,0.4,1.1,74,0.00,CLR,,0.01,18.0,WeatherDisplay:10.37,2013-01-08 22:08:00,
2013-01-08 17:13:00,34.4,27.0,30.22,SSE,167,0.6,1.1,74,0.00,CLR,,0.01,12.0,WeatherDisplay:10.37,2013-01-08 22:13:00,
2013-01-08 17:18:00,34.1,27.0,30.22,SSE,167,0.1,1.1,75,0.00,CLR,,0.01,5.0,WeatherDisplay:10.37,2013-01-08 22:18:00,
2013-01-08 17:23:00,33.7,26.6,30.22,SSE,167,0.6,1.1,75,0.00,CLR,,0.01,0.0,WeatherDisplay:10.37,2013-01-08 22:23:00,
2013-01-08 17:28:00,33.3,26.5,30.22,SSE,167,0.0,1.1,76,0.00,CLR,,0.01,0.0,WeatherDisplay:10.37,2013-01-08 22:28:00,
2013-01-08 17:33:00,32.8,26.4,30.23,SSE,167,0.1,1.1,77,0.00,CLR,,0.01,0.0,WeatherDisplay:10.37,2013-01-08 22:33:00,
2013-01-08 17:38:00,32.4,26.3,30.22,SSE,167,0.0,0.0,78,0.00,CLR,,0.01,0.0,WeatherDisplay:10.37,2013-01-08 22:38:00,
2013-01-08 17:43:00,32.0,26.2,30.22,SSE,167,0.4,1.1,79,0.00,CLR,,0.01,0.0,WeatherDisplay:10.37,2013-01-08 22:43:00,
2013-01-08 17:48:00,31.5,25.7,30.22,SSE,167,0.5,1.1,79,0.00,CLR,,0.01,0.0,WeatherDisplay:10.37,2013-01-08 22:48:00,
2013-01-08 17:53:00,31.0,25.2,30.22,SSE,167,0.0,1.1,79,0.00,CLR,,0.01,0.0,WeatherDisplay:10.37,2013-01-08 22:53:00,
2013-01-08 17:58:00,30.4,25.3,30.22,SSE,167,0.0,0.0,81,0.00,CLR,,0.01,0.0,WeatherDisplay:10.37,2013-01-08 22:58:00,
2013-01-08 18:03:00,29.9,25.1,30.22,SSE,167,0.0,0.0,82,0.00,CLR,,0.01,0.0,WeatherDisplay:10.37,2013-01-08 23:03:00,
2013-01-08 18:08:00,29.5,25.0,30.22,SSE,167,0.0,0.0,83,0.00,CLR,,0.01,0.0,WeatherDisplay:10.37,2013-01-08 23:08:00,
2013-01-08 18:13:00,29.1,24.9,30.22,SSE,167,0.1,1.1,84,0.00,CLR,,0.01,0.0,WeatherDisplay:10.37,2013-01-08 23:13:00,
2013-01-08 18:18:00,28.7,24.5,30.22,SSE,167,0.0,0.0,84,0.00,CLR,,0.01,0.0,WeatherDisplay:10.37,2013-01-08 23:18:00,
2013-01-08 18:23:00,28.2,24.3,30.22,SSE,167,0.1,1.1,85,0.00,CLR,,0.01,0.0,WeatherDisplay:10.37,2013-01-08 23:23:00,
2013-01-08 18:28:00,27.9,24.3,30.22,SSE,167,0.1,1.1,86,0.00,CLR,,0.01,0.0,WeatherDisplay:10.37,2013-01-08 23:28:00,
2013-01-08 18:33:00,27.7,24.1,30.22,SSE,167,0.1,1.1,86,0.00,CLR,,0.01,0.0,WeatherDisplay:10.37,2013-01-08 23:33:00,
2013-01-08 18:38:00,27.4,24.0,30.22,SSE,167,0.1,1.1,87,0.00,CLR,,0.01,0.0,WeatherDisplay:10.37,2013-01-08 23:38:00,
2013-01-08 18:43:00,27.2,24.1,30.22,SSE,167,0.3,1.1,88,0.00,CLR,,0.01,0.0,WeatherDisplay:10.37,2013-01-08 23:43:00,
2013-01-08 18:48:00,27.1,24.0,30.22,SSE,167,0.0,1.1,88,0.00,CLR,,0.01,0.0,WeatherDisplay:10.37,2013-01-08 23:48:00,
2013-01-08 18:53:00,26.8,23.4,30.22,SSE,167,0.4,1.1,87,0.00,CLR,,0.01,0.0,WeatherDisplay:10.37,2013-01-08 23:53:00,
2013-01-08 18:58:00,26.6,23.5,30.22,SSE,167,0.8,1.1,88,0.00,CLR,,0.01,0.0,WeatherDisplay:10.37,2013-01-08 23:58:00,
2013-01-08 19:03:00,26.4,23.6,30.21,SSE,167,1.1,2.3,89,0.00,CLR,,0.01,0.0,WeatherDisplay:10.37,2013-01-09 00:03:00,
2013-01-08 19:08:00,26.2,23.4,30.21,SSE,167,0.4,1.1,89,0.00,CLR,,0.01,0.0,WeatherDisplay:10.37,2013-01-09 00:08:00,
2013-01-08 19:13:00,25.9,23.1,30.21,SSE,167,0.0,0.0,89,0.00,CLR,,0.01,0.0,WeatherDisplay:10.37,2013-01-09 00:13:00,
2013-01-08 19:18:00,25.8,23.3,30.21,SSE,167,0.1,1.1,90,0.00,CLR,,0.01,0.0,WeatherDisplay:10.37,2013-01-09 00:18:00,
2013-01-08 19:23:00,25.7,23.2,30.21,SSE,167,0.1,1.1,90,0.00,CLR,,0.01,0.0,WeatherDisplay:10.37,2013-01-09 00:23:00,
2013-01-08 19:28:00,25.4,22.9,30.21,SSE,167,0.2,1.1,90,0.00,CLR,,0.01,0.0,WeatherDisplay:10.37,2013-01-09 00:28:00,
2013-01-08 19:33:00,25.2,22.9,30.22,SSE,167,0.4,1.1,91,0.00,CLR,,0.01,0.0,WeatherDisplay:10.37,2013-01-09 00:33:00,
2013-01-08 19:38:00,25.2,22.9,30.22,SSE,167,0.4,1.1,91,0.00,CLR,,0.01,0.0,WeatherDisplay:10.37,2013-01-09 00:38:00,
2013-01-08 19:43:00,25.0,22.5,30.21,SSE,167,0.1,1.1,90,0.00,CLR,,0.01,0.0,WeatherDisplay:10.37,2013-01-09 00:43:00,
2013-01-08 19:48:00,24.8,22.5,30.22,SSE,167,0.2,0.0,91,0.00,CLR,,0.01,0.0,WeatherDisplay:10.37,2013-01-09 00:48:00,
2013-01-08 19:53:00,24.7,22.7,30.23,SSE,167,0.0,0.0,92,0.00,CLR,,0.01,0.0,WeatherDisplay:10.37,2013-01-09 00:53:00,
2013-01-08 19:58:00,24.6,22.6,30.22,SSE,167,0.0,1.0,92,0.00,CLR,,0.01,0.0,WeatherDisplay:10.37,2013-01-09 00:58:00,
2013-01-08 20:03:00,24.5,22.5,30.23,SSE,167,0.0,0.0,92,0.00,CLR,,0.01,0.0,WeatherDisplay:10.37,2013-01-09 01:03:00,
2013-01-08 20:08:00,24.4,22.4,30.22,SSE,167,0.1,1.1,92,0.00,CLR,,0.01,0.0,WeatherDisplay:10.37,2013-01-09 01:08:00,
2013-01-08 20:13:00,24.4,22.4,30.22,SSE,167,0.0,0.0,92,0.00,CLR,,0.01,0.0,WeatherDisplay:10.37,2013-01-09 01:13:00,
2013-01-08 20:18:00,24.3,22.3,30.22,SSE,167,0.8,2.0,92,0.00,CLR,,0.01,0.0,WeatherDisplay:10.37,2013-01-09 01:18:00,
2013-01-08 20:23:00,24.2,22.2,30.22,SSE,167,0.4,1.1,92,0.00,CLR,,0.01,0.0,WeatherDisplay:10.37,2013-01-09 01:23:00,
2013-01-08 20:28:00,24.2,22.2,30.22,SSE,167,0.2,1.1,92,0.00,CLR,,0.01,0.0,WeatherDisplay:10.37,2013-01-09 01:28:00,
2013-01-08 20:33:00,23.9,21.7,30.22,SSE,167,0.0,0.0,91,0.00,CLR,,0.01,0.0,WeatherDisplay:10.37,2013-01-09 01:33:00,
2013-01-08 20:38:00,23.8,21.8,30.22,SSE,167,0.4,1.1,92,0.00,CLR,,0.01,0.0,WeatherDisplay:10.37,2013-01-09 01:38:00,
2013-01-08 20:43:00,23.7,21.7,30.21,SSE,167,0.6,1.1,92,0.00,CLR,,0.01,0.0,WeatherDisplay:10.37,2013-01-09 01:43:00,
2013-01-08 20:48:00,23.6,21.6,30.21,SSE,167,0.7,1.1,92,0.00,CLR,,0.01,0.0,WeatherDisplay:10.37,2013-01-09 01:48:00,
2013-01-08 20:53:00,23.4,21.4,30.21,SSE,167,1.4,2.3,92,0.00,CLR,,0.01,0.0,WeatherDisplay:10.37,2013-01-09 01:53:00,
2013-01-08 20:58:00,23.2,21.5,30.20,SSE,167,1.1,2.3,93,0.00,CLR,,0.01,0.0,WeatherDisplay:10.37,2013-01-09 01:58:00,
2013-01-08 21:03:00,23.0,20.8,30.20,SSE,167,0.9,1.1,91,0.00,CLR,,0.01,0.0,WeatherDisplay:10.37,2013-01-09 02:03:00,
2013-01-08 21:08:00,22.7,20.7,30.19,SSE,167,0.8,2.3,92,0.00,CLR,,0.01,0.0,WeatherDisplay:10.37,2013-01-09 02:08:00,
2013-01-08 21:13:00,22.5,20.5,30.19,SSE,167,0.6,1.1,92,0.00,CLR,,0.01,0.0,WeatherDisplay:10.37,2013-01-09 02:13:00,
2013-01-08 21:18:00,22.6,21.1,30.19,SSE,167,0.2,1.1,94,0.00,CLR,,0.01,0.0,WeatherDisplay:10.37,2013-01-09 02:18:00,
2013-01-08 21:23:00,22.9,21.7,30.19,SSE,167,0.0,0.0,95,0.00,CLR,,0.01,0.0,WeatherDisplay:10.37,2013-01-09 02:23:00,
2013-01-08 21:28:00,23.1,21.9,30.19,SSE,167,0.1,0.0,95,0.00,CLR,,0.01,0.0,WeatherDisplay:10.37,2013-01-09 02:28:00,
2013-01-08 21:33:00,23.2,21.7,30.18,SSE,167,0.0,1.1,94,0.00,CLR,,0.01,0.0,WeatherDisplay:10.37,2013-01-09 02:33:00,
2013-01-08 21:38:00,23.3,21.8,30.18,SSE,167,0.0,0.0,94,0.00,CLR,,0.01,0.0,WeatherDisplay:10.37,2013-01-09 02:38:00,
2013-01-08 21:43:00,23.1,21.6,30.18,SSE,167,0.4,1.1,94,0.00,CLR,,0.01,0.0,WeatherDisplay:10.37,2013-01-09 02:43:00,
2013-01-08 21:48:00,23.1,21.6,30.18,SSE,167,0.1,1.1,94,0.00,CLR,,0.01,0.0,WeatherDisplay:10.37,2013-01-09 02:48:00,
2013-01-08 21:53:00,23.0,21.5,30.18,SSE,167,0.5,1.1,94,0.00,CLR,,0.01,0.0,WeatherDisplay:10.37,2013-01-09 02:53:00,
2013-01-08 21:58:00,22.9,21.4,30.19,SSE,167,0.6,1.1,94,0.00,CLR,,0.01,0.0,WeatherDisplay:10.37,2013-01-09 02:58:00,
2013-01-08 22:03:00,22.9,21.4,30.19,SSE,167,0.3,1.1,94,0.00,CLR,,0.01,0.0,WeatherDisplay:10.37,2013-01-09 03:03:00,
2013-01-08 22:15:00,22.6,21.1,30.19,SSE,167,0.0,1.0,94,0.00,RA,,0.01,0.0,WeatherDisplay:10.37,2013-01-09 03:15:00,
2013-01-08 22:20:00,22.4,20.9,30.19,SSE,167,0.0,0.0,94,0.00,RA,,0.01,0.0,WeatherDisplay:10.37,2013-01-09 03:20:00,
2013-01-08 22:25:00,22.3,20.8,30.18,SSE,167,0.0,1.1,94,0.00,CLR,,0.01,0.0,WeatherDisplay:10.37,2013-01-09 03:25:00,
2013-01-08 22:30:00,22.1,20.6,30.18,SSE,167,0.0,1.1,94,0.00,CLR,,0.01,0.0,WeatherDisplay:10.37,2013-01-09 03:30:00,
2013-01-08 22:35:00,22.1,20.6,30.18,SSE,167,0.0,0.0,94,0.00,CLR,,0.01,0.0,WeatherDisplay:10.37,2013-01-09 03:35:00,
2013-01-08 22:40:00,22.1,20.6,30.18,SSE,167,0.0,0.0,94,0.00,CLR,,0.01,0.0,WeatherDisplay:10.37,2013-01-09 03:40:00,
2013-01-08 22:45:00,21.6,19.9,30.18,SSE,167,0.1,0.0,93,0.00,CLR,,0.01,0.0,WeatherDisplay:10.37,2013-01-09 03:45:00,
2013-01-08 22:50:00,21.4,19.7,30.18,SSE,167,0.0,0.0,93,0.00,CLR,,0.01,0.0,WeatherDisplay:10.37,2013-01-09 03:50:00,
2013-01-08 22:55:00,21.3,19.8,30.17,SSE,167,1.0,1.1,94,0.00,CLR,,0.01,0.0,WeatherDisplay:10.37,2013-01-09 03:55:00,
2013-01-08 23:00:00,21.4,19.9,30.17,SSE,163,1.1,2.3,94,0.00,CLR,,0.01,0.0,WeatherDisplay:10.37,2013-01-09 04:00:00,
2013-01-08 23:05:00,21.8,20.6,30.17,SSE,161,1.4,2.3,95,0.00,CLR,,0.01,0.0,WeatherDisplay:10.37,2013-01-09 04:05:00,
2013-01-08 23:10:00,22.8,21.8,30.17,SSE,161,1.3,2.3,96,0.00,CLR,,0.01,0.0,WeatherDisplay:10.37,2013-01-09 04:10:00,
2013-01-08 23:15:00,24.0,23.0,30.17,SSE,157,1.2,2.3,96,0.00,CLR,,0.01,0.0,WeatherDisplay:10.37,2013-01-09 04:15:00,
2013-01-08 23:20:00,24.7,23.7,30.17,SSE,153,1.3,2.3,96,0.00,CLR,,0.01,0.0,WeatherDisplay:10.37,2013-01-09 04:20:00,
2013-01-08 23:25:00,24.9,23.9,30.17,SSE,153,0.6,1.1,96,0.00,CLR,,0.01,0.0,WeatherDisplay:10.37,2013-01-09 04:25:00,
2013-01-08 23:30:00,25.1,24.1,30.16,SSE,153,0.8,1.1,96,0.00,CLR,,0.01,0.0,WeatherDisplay:10.37,2013-01-09 04:30:00,
2013-01-08 23:35:00,25.3,24.3,30.16,SSE,153,1.1,1.1,96,0.00,CLR,,0.01,0.0,WeatherDisplay:10.37,2013-01-09 04:35:00,
2013-01-08 23:40:00,25.6,24.6,30.16,SSE,153,0.5,2.3,96,0.00,CLR,,0.01,0.0,WeatherDisplay:10.37,2013-01-09 04:40:00,
2013-01-08 23:45:00,25.9,24.9,30.17,South,182,0.3,1.1,96,0.00,CLR,,0.01,0.0,WeatherDisplay:10.37,2013-01-09 04:45:00,
2013-01-08 23:50:00,26.0,24.8,30.16,South,182,0.5,1.1,95,0.00,CLR,,0.01,0.0,WeatherDisplay:10.37,2013-01-09 04:50:00,
2013-01-08 23:55:00,26.0,24.5,30.17,South,182,0.4,1.1,94,0.00,CLR,,0.01,0.0,WeatherDisplay:10.37,2013-01-09 04:55:00,